sensor_id;sensor_type;location;lat;lon;timestamp;temperature;humidity
35445;DHT22;21562;49.476;6.086;2022-12-18T00:02:22;-1.20;99.90
35445;DHT22;21562;49.476;6.086;2022-12-18T00:04:48;-1.10;99.90
35445;DHT22;21562;49.476;6.086;2022-12-18T00:07:13;-1.00;99.90
35445;DHT22;21562;49.476;6.086;2022-12-18T00:09:39;-1.00;99.90
35445;DHT22;21562;49.476;6.086;2022-12-18T00:12:05;-1.00;99.90
35445;DHT22;21562;49.476;6.086;2022-12-18T00:14:30;-0.90;99.90
35445;DHT22;21562;49.476;6.086;2022-12-18T00:16:56;-1.00;99.90
35445;DHT22;21562;49.476;6.086;2022-12-18T00:19:23;-1.00;99.90
35445;DHT22;21562;49.476;6.086;2022-12-18T00:21:49;-1.00;99.90
35445;DHT22;21562;49.476;6.086;2022-12-18T00:24:14;-1.10;99.90
35445;DHT22;21562;49.476;6.086;2022-12-18T00:26:40;-1.60;99.90
35445;DHT22;21562;49.476;6.086;2022-12-18T00:29:13;-1.60;99.90
35445;DHT22;21562;49.476;6.086;2022-12-18T00:31:40;-1.70;99.90
35445;DHT22;21562;49.476;6.086;2022-12-18T00:34:06;-1.60;99.90
35445;DHT22;21562;49.476;6.086;2022-12-18T00:36:33;-1.40;99.90
35445;DHT22;21562;49.476;6.086;2022-12-18T00:39:01;-1.30;99.90
35445;DHT22;21562;49.476;6.086;2022-12-18T00:41:28;-1.50;99.90
35445;DHT22;21562;49.476;6.086;2022-12-18T00:44:14;-1.40;99.90
35445;DHT22;21562;49.476;6.086;2022-12-18T00:46:41;-1.30;99.90
35445;DHT22;21562;49.476;6.086;2022-12-18T00:49:07;-1.30;99.90
35445;DHT22;21562;49.476;6.086;2022-12-18T00:51:32;-1.20;99.90
35445;DHT22;21562;49.476;6.086;2022-12-18T00:53:58;-1.20;99.90
35445;DHT22;21562;49.476;6.086;2022-12-18T00:56:24;-1.10;99.90
35445;DHT22;21562;49.476;6.086;2022-12-18T00:58:50;-1.10;99.90
35445;DHT22;21562;49.476;6.086;2022-12-18T01:01:15;-1.10;99.90
35445;DHT22;21562;49.476;6.086;2022-12-18T01:03:41;-1.10;99.90
35445;DHT22;21562;49.476;6.086;2022-12-18T01:06:08;-1.10;99.90
35445;DHT22;21562;49.476;6.086;2022-12-18T01:08:34;-1.00;99.90
35445;DHT22;21562;49.476;6.086;2022-12-18T01:11:00;-1.00;99.90
35445;DHT22;21562;49.476;6.086;2022-12-18T01:13:26;-1.00;99.90
35445;DHT22;21562;49.476;6.086;2022-12-18T01:15:52;-1.00;99.90
35445;DHT22;21562;49.476;6.086;2022-12-18T01:18:18;-1.00;99.90
35445;DHT22;21562;49.476;6.086;2022-12-18T01:20:43;-1.10;99.90
35445;DHT22;21562;49.476;6.086;2022-12-18T01:23:09;-1.10;99.90
35445;DHT22;21562;49.476;6.086;2022-12-18T01:25:38;-1.00;99.90
35445;DHT22;21562;49.476;6.086;2022-12-18T01:28:04;-1.00;99.90
35445;DHT22;21562;49.476;6.086;2022-12-18T01:30:29;-1.00;99.90
35445;DHT22;21562;49.476;6.086;2022-12-18T01:32:55;-1.10;99.90
35445;DHT22;21562;49.476;6.086;2022-12-18T01:35:20;-1.10;99.90
35445;DHT22;21562;49.476;6.086;2022-12-18T01:37:46;-1.10;99.90
35445;DHT22;21562;49.476;6.086;2022-12-18T01:40:12;-1.20;99.90
35445;DHT22;21562;49.476;6.086;2022-12-18T01:42:37;-1.20;99.90
35445;DHT22;21562;49.476;6.086;2022-12-18T01:50:12;-1.20;99.90
35445;DHT22;21562;49.476;6.086;2022-12-18T01:52:39;-1.20;99.90
35445;DHT22;21562;49.476;6.086;2022-12-18T01:55:07;-1.20;99.90
35445;DHT22;21562;49.476;6.086;2022-12-18T01:57:33;-1.30;99.90
35445;DHT22;21562;49.476;6.086;2022-12-18T02:00:04;-1.30;99.90
35445;DHT22;21562;49.476;6.086;2022-12-18T02:02:30;-1.30;99.90
35445;DHT22;21562;49.476;6.086;2022-12-18T02:04:56;-1.50;99.90
35445;DHT22;21562;49.476;6.086;2022-12-18T02:13:09;-1.50;99.90
35445;DHT22;21562;49.476;6.086;2022-12-18T02:16:02;-1.40;99.90
35445;DHT22;21562;49.476;6.086;2022-12-18T02:18:38;-1.40;99.90
35445;DHT22;21562;49.476;6.086;2022-12-18T02:21:24;-1.40;99.90
35445;DHT22;21562;49.476;6.086;2022-12-18T02:26:38;-1.40;99.90
35445;DHT22;21562;49.476;6.086;2022-12-18T02:29:13;-1.40;99.90
35445;DHT22;21562;49.476;6.086;2022-12-18T02:31:43;-1.50;99.90
35445;DHT22;21562;49.476;6.086;2022-12-18T02:34:11;-1.80;99.90
35445;DHT22;21562;49.476;6.086;2022-12-18T02:36:39;-1.70;99.90
35445;DHT22;21562;49.476;6.086;2022-12-18T02:39:09;-1.80;99.90
35445;DHT22;21562;49.476;6.086;2022-12-18T02:41:36;-1.80;99.90
35445;DHT22;21562;49.476;6.086;2022-12-18T02:44:08;-1.70;99.90
35445;DHT22;21562;49.476;6.086;2022-12-18T02:51:57;-2.40;99.90
35445;DHT22;21562;49.476;6.086;2022-12-18T02:54:31;-2.20;99.90
35445;DHT22;21562;49.476;6.086;2022-12-18T02:57:48;-2.00;99.90
35445;DHT22;21562;49.476;6.086;2022-12-18T03:00:03;-1.90;99.90
35445;DHT22;21562;49.476;6.086;2022-12-18T03:05:35;-1.80;99.90
35445;DHT22;21562;49.476;6.086;2022-12-18T03:08:10;-1.80;99.90
35445;DHT22;21562;49.476;6.086;2022-12-18T03:10:44;-1.90;99.90
35445;DHT22;21562;49.476;6.086;2022-12-18T03:13:21;-1.80;99.90
35445;DHT22;21562;49.476;6.086;2022-12-18T03:15:51;-1.80;99.90
35445;DHT22;21562;49.476;6.086;2022-12-18T03:18:33;-2.10;99.90
35445;DHT22;21562;49.476;6.086;2022-12-18T03:21:03;-2.00;99.90
35445;DHT22;21562;49.476;6.086;2022-12-18T03:23:35;-2.00;99.90
35445;DHT22;21562;49.476;6.086;2022-12-18T03:26:07;-1.90;99.90
35445;DHT22;21562;49.476;6.086;2022-12-18T03:28:38;-1.80;99.90
35445;DHT22;21562;49.476;6.086;2022-12-18T03:31:06;-2.20;99.90
35445;DHT22;21562;49.476;6.086;2022-12-18T03:33:54;-2.30;99.90
35445;DHT22;21562;49.476;6.086;2022-12-18T03:36:20;-2.20;99.90
35445;DHT22;21562;49.476;6.086;2022-12-18T03:38:46;-2.20;99.90
35445;DHT22;21562;49.476;6.086;2022-12-18T03:44:15;-2.00;99.90
35445;DHT22;21562;49.476;6.086;2022-12-18T03:47:01;-2.00;99.90
35445;DHT22;21562;49.476;6.086;2022-12-18T03:49:48;-2.00;99.90
35445;DHT22;21562;49.476;6.086;2022-12-18T03:54:43;-1.80;99.90
35445;DHT22;21562;49.476;6.086;2022-12-18T03:57:16;-2.10;99.90
35445;DHT22;21562;49.476;6.086;2022-12-18T03:59:44;-2.10;99.90
35445;DHT22;21562;49.476;6.086;2022-12-18T04:02:11;-2.10;99.90
35445;DHT22;21562;49.476;6.086;2022-12-18T04:04:38;-2.20;99.90
35445;DHT22;21562;49.476;6.086;2022-12-18T04:07:05;-2.20;99.90
35445;DHT22;21562;49.476;6.086;2022-12-18T04:09:33;-2.00;99.90
35445;DHT22;21562;49.476;6.086;2022-12-18T04:11:59;-1.80;99.90
35445;DHT22;21562;49.476;6.086;2022-12-18T04:14:25;-2.20;99.90
35445;DHT22;21562;49.476;6.086;2022-12-18T04:16:51;-2.10;99.90
35445;DHT22;21562;49.476;6.086;2022-12-18T04:19:16;-1.90;99.90
35445;DHT22;21562;49.476;6.086;2022-12-18T04:21:42;-1.80;99.90
35445;DHT22;21562;49.476;6.086;2022-12-18T04:24:07;-1.80;99.90
35445;DHT22;21562;49.476;6.086;2022-12-18T04:26:34;-2.10;99.90
35445;DHT22;21562;49.476;6.086;2022-12-18T04:28:59;-2.20;99.90
35445;DHT22;21562;49.476;6.086;2022-12-18T04:31:25;-2.50;99.90
35445;DHT22;21562;49.476;6.086;2022-12-18T04:33:51;-2.70;99.90
35445;DHT22;21562;49.476;6.086;2022-12-18T04:36:16;-2.70;99.90
35445;DHT22;21562;49.476;6.086;2022-12-18T04:38:42;-2.40;99.90
35445;DHT22;21562;49.476;6.086;2022-12-18T04:41:07;-2.20;99.90
35445;DHT22;21562;49.476;6.086;2022-12-18T04:43:33;-2.20;99.90
35445;DHT22;21562;49.476;6.086;2022-12-18T04:46:06;-1.90;99.90
35445;DHT22;21562;49.476;6.086;2022-12-18T04:48:33;-2.30;99.90
35445;DHT22;21562;49.476;6.086;2022-12-18T04:50:58;-2.80;99.90
35445;DHT22;21562;49.476;6.086;2022-12-18T04:53:24;-2.70;99.90
35445;DHT22;21562;49.476;6.086;2022-12-18T04:55:50;-2.60;99.90
35445;DHT22;21562;49.476;6.086;2022-12-18T04:58:15;-2.50;99.90
35445;DHT22;21562;49.476;6.086;2022-12-18T05:00:41;-2.60;99.90
35445;DHT22;21562;49.476;6.086;2022-12-18T05:03:07;-2.70;99.90
35445;DHT22;21562;49.476;6.086;2022-12-18T05:05:35;-2.60;99.90
35445;DHT22;21562;49.476;6.086;2022-12-18T05:08:00;-2.70;99.90
35445;DHT22;21562;49.476;6.086;2022-12-18T05:10:26;-2.50;99.90
35445;DHT22;21562;49.476;6.086;2022-12-18T05:12:51;-2.70;99.90
35445;DHT22;21562;49.476;6.086;2022-12-18T05:15:24;-2.90;99.90
35445;DHT22;21562;49.476;6.086;2022-12-18T05:17:50;-2.70;99.90
35445;DHT22;21562;49.476;6.086;2022-12-18T05:20:15;-2.80;99.90
35445;DHT22;21562;49.476;6.086;2022-12-18T05:22:41;-2.60;99.90
35445;DHT22;21562;49.476;6.086;2022-12-18T05:25:07;-2.90;99.90
35445;DHT22;21562;49.476;6.086;2022-12-18T05:27:33;-2.90;99.90
35445;DHT22;21562;49.476;6.086;2022-12-18T05:29:58;-3.00;99.90
35445;DHT22;21562;49.476;6.086;2022-12-18T05:32:24;-2.80;99.90
35445;DHT22;21562;49.476;6.086;2022-12-18T05:34:49;-2.80;99.90
35445;DHT22;21562;49.476;6.086;2022-12-18T05:37:15;-3.00;99.90
35445;DHT22;21562;49.476;6.086;2022-12-18T05:39:40;-2.90;99.90
35445;DHT22;21562;49.476;6.086;2022-12-18T05:42:07;-2.80;99.90
35445;DHT22;21562;49.476;6.086;2022-12-18T05:44:33;-2.70;99.90
35445;DHT22;21562;49.476;6.086;2022-12-18T05:46:59;-2.50;99.90
35445;DHT22;21562;49.476;6.086;2022-12-18T05:49:25;-2.50;99.90
35445;DHT22;21562;49.476;6.086;2022-12-18T05:51:50;-2.60;99.90
35445;DHT22;21562;49.476;6.086;2022-12-18T05:54:16;-2.80;99.90
35445;DHT22;21562;49.476;6.086;2022-12-18T05:56:41;-3.00;99.90
35445;DHT22;21562;49.476;6.086;2022-12-18T05:59:07;-3.10;99.90
35445;DHT22;21562;49.476;6.086;2022-12-18T06:01:33;-3.30;99.90
35445;DHT22;21562;49.476;6.086;2022-12-18T06:03:58;-3.00;99.90
35445;DHT22;21562;49.476;6.086;2022-12-18T06:06:26;-3.00;99.90
35445;DHT22;21562;49.476;6.086;2022-12-18T06:08:53;-3.30;99.90
35445;DHT22;21562;49.476;6.086;2022-12-18T06:11:22;-3.10;99.90
35445;DHT22;21562;49.476;6.086;2022-12-18T06:13:52;-3.30;99.90
35445;DHT22;21562;49.476;6.086;2022-12-18T06:16:18;-3.10;99.90
35445;DHT22;21562;49.476;6.086;2022-12-18T06:18:44;-2.90;99.90
35445;DHT22;21562;49.476;6.086;2022-12-18T06:21:11;-2.80;99.90
35445;DHT22;21562;49.476;6.086;2022-12-18T06:23:37;-2.90;99.90
35445;DHT22;21562;49.476;6.086;2022-12-18T06:26:08;-2.90;99.90
35445;DHT22;21562;49.476;6.086;2022-12-18T06:28:33;-2.80;99.90
35445;DHT22;21562;49.476;6.086;2022-12-18T06:30:59;-3.00;99.90
35445;DHT22;21562;49.476;6.086;2022-12-18T06:33:28;-2.70;99.90
35445;DHT22;21562;49.476;6.086;2022-12-18T06:35:54;-2.60;99.90
35445;DHT22;21562;49.476;6.086;2022-12-18T06:38:24;-2.50;99.90
35445;DHT22;21562;49.476;6.086;2022-12-18T06:40:50;-2.70;99.90
35445;DHT22;21562;49.476;6.086;2022-12-18T06:43:15;-2.90;99.90
35445;DHT22;21562;49.476;6.086;2022-12-18T06:45:41;-2.50;99.90
35445;DHT22;21562;49.476;6.086;2022-12-18T06:48:07;-2.30;99.90
35445;DHT22;21562;49.476;6.086;2022-12-18T06:50:33;-2.40;99.90
35445;DHT22;21562;49.476;6.086;2022-12-18T06:52:59;-2.50;99.90
35445;DHT22;21562;49.476;6.086;2022-12-18T06:55:25;-2.20;99.90
35445;DHT22;21562;49.476;6.086;2022-12-18T06:57:50;-2.10;99.90
35445;DHT22;21562;49.476;6.086;2022-12-18T07:00:16;-2.20;99.90
35445;DHT22;21562;49.476;6.086;2022-12-18T07:02:42;-2.00;99.90
35445;DHT22;21562;49.476;6.086;2022-12-18T07:05:07;-2.50;99.90
35445;DHT22;21562;49.476;6.086;2022-12-18T07:07:34;-2.80;99.90
35445;DHT22;21562;49.476;6.086;2022-12-18T07:10:00;-2.90;99.90
35445;DHT22;21562;49.476;6.086;2022-12-18T07:12:27;-2.80;99.90
35445;DHT22;21562;49.476;6.086;2022-12-18T07:14:52;-3.10;99.90
35445;DHT22;21562;49.476;6.086;2022-12-18T07:17:18;-3.10;99.90
35445;DHT22;21562;49.476;6.086;2022-12-18T07:19:43;-3.40;99.90
35445;DHT22;21562;49.476;6.086;2022-12-18T07:22:09;-3.10;99.90
35445;DHT22;21562;49.476;6.086;2022-12-18T07:24:35;-2.90;99.90
35445;DHT22;21562;49.476;6.086;2022-12-18T07:27:00;-2.80;99.90
35445;DHT22;21562;49.476;6.086;2022-12-18T07:29:26;-3.10;99.90
35445;DHT22;21562;49.476;6.086;2022-12-18T07:31:51;-3.50;99.90
35445;DHT22;21562;49.476;6.086;2022-12-18T07:34:17;-3.70;99.90
35445;DHT22;21562;49.476;6.086;2022-12-18T07:36:43;-3.60;99.90
35445;DHT22;21562;49.476;6.086;2022-12-18T07:39:10;-3.40;99.90
35445;DHT22;21562;49.476;6.086;2022-12-18T07:41:36;-3.50;99.90
35445;DHT22;21562;49.476;6.086;2022-12-18T07:44:01;-3.70;99.90
35445;DHT22;21562;49.476;6.086;2022-12-18T07:46:27;-3.70;99.90
35445;DHT22;21562;49.476;6.086;2022-12-18T07:48:52;-3.60;99.90
35445;DHT22;21562;49.476;6.086;2022-12-18T07:51:18;-3.50;99.90
35445;DHT22;21562;49.476;6.086;2022-12-18T07:53:44;-3.80;99.90
35445;DHT22;21562;49.476;6.086;2022-12-18T07:56:11;-3.50;99.90
35445;DHT22;21562;49.476;6.086;2022-12-18T07:58:37;-3.40;99.90
35445;DHT22;21562;49.476;6.086;2022-12-18T08:01:07;-3.50;99.90
35445;DHT22;21562;49.476;6.086;2022-12-18T08:03:33;-3.50;99.90
35445;DHT22;21562;49.476;6.086;2022-12-18T08:06:05;-3.40;99.90
35445;DHT22;21562;49.476;6.086;2022-12-18T08:08:32;-3.20;99.90
35445;DHT22;21562;49.476;6.086;2022-12-18T08:10:58;-3.90;99.90
35445;DHT22;21562;49.476;6.086;2022-12-18T08:13:25;-3.90;99.90
35445;DHT22;21562;49.476;6.086;2022-12-18T08:16:01;-3.80;99.90
35445;DHT22;21562;49.476;6.086;2022-12-18T08:18:28;-3.50;99.90
35445;DHT22;21562;49.476;6.086;2022-12-18T08:20:54;-3.20;99.90
35445;DHT22;21562;49.476;6.086;2022-12-18T08:23:20;-3.40;99.90
35445;DHT22;21562;49.476;6.086;2022-12-18T08:25:46;-3.50;99.90
35445;DHT22;21562;49.476;6.086;2022-12-18T08:28:12;-3.40;99.90
35445;DHT22;21562;49.476;6.086;2022-12-18T08:30:37;-3.20;99.90
35445;DHT22;21562;49.476;6.086;2022-12-18T08:33:04;-3.50;99.90
35445;DHT22;21562;49.476;6.086;2022-12-18T08:35:29;-3.90;99.90
35445;DHT22;21562;49.476;6.086;2022-12-18T08:37:55;-3.90;99.90
35445;DHT22;21562;49.476;6.086;2022-12-18T08:40:20;-3.70;99.90
35445;DHT22;21562;49.476;6.086;2022-12-18T08:42:46;-3.40;99.90
35445;DHT22;21562;49.476;6.086;2022-12-18T08:45:30;-3.10;99.90
35445;DHT22;21562;49.476;6.086;2022-12-18T08:47:56;-2.90;99.90
35445;DHT22;21562;49.476;6.086;2022-12-18T08:50:21;-3.10;99.90
35445;DHT22;21562;49.476;6.086;2022-12-18T08:52:47;-3.40;99.90
35445;DHT22;21562;49.476;6.086;2022-12-18T08:55:13;-3.40;99.90
35445;DHT22;21562;49.476;6.086;2022-12-18T08:57:38;-3.50;99.90
35445;DHT22;21562;49.476;6.086;2022-12-18T09:00:04;-3.50;99.90
35445;DHT22;21562;49.476;6.086;2022-12-18T09:02:30;-3.50;99.90
35445;DHT22;21562;49.476;6.086;2022-12-18T09:04:56;-3.40;99.90
35445;DHT22;21562;49.476;6.086;2022-12-18T09:07:21;-3.30;99.90
35445;DHT22;21562;49.476;6.086;2022-12-18T09:09:47;-3.70;99.90
35445;DHT22;21562;49.476;6.086;2022-12-18T09:12:13;-4.00;99.90
35445;DHT22;21562;49.476;6.086;2022-12-18T09:14:38;-4.00;99.90
35445;DHT22;21562;49.476;6.086;2022-12-18T09:17:04;-3.80;99.90
35445;DHT22;21562;49.476;6.086;2022-12-18T09:19:29;-3.80;99.90
35445;DHT22;21562;49.476;6.086;2022-12-18T09:21:55;-4.10;99.90
35445;DHT22;21562;49.476;6.086;2022-12-18T09:24:21;-4.30;99.90
35445;DHT22;21562;49.476;6.086;2022-12-18T09:26:46;-4.30;99.90
35445;DHT22;21562;49.476;6.086;2022-12-18T09:29:12;-4.10;99.90
35445;DHT22;21562;49.476;6.086;2022-12-18T09:31:38;-4.00;99.90
35445;DHT22;21562;49.476;6.086;2022-12-18T09:34:04;-3.90;99.90
35445;DHT22;21562;49.476;6.086;2022-12-18T09:36:30;-3.80;99.90
35445;DHT22;21562;49.476;6.086;2022-12-18T09:38:56;-3.70;99.90
35445;DHT22;21562;49.476;6.086;2022-12-18T09:46:56;-3.90;99.90
35445;DHT22;21562;49.476;6.086;2022-12-18T09:49:25;-3.80;99.90
35445;DHT22;21562;49.476;6.086;2022-12-18T09:51:59;-3.80;99.90
35445;DHT22;21562;49.476;6.086;2022-12-18T09:54:39;-3.40;99.90
35445;DHT22;21562;49.476;6.086;2022-12-18T09:57:13;-3.70;99.90
35445;DHT22;21562;49.476;6.086;2022-12-18T09:59:39;-4.00;99.90
35445;DHT22;21562;49.476;6.086;2022-12-18T10:02:24;-4.00;99.90
35445;DHT22;21562;49.476;6.086;2022-12-18T10:05:01;-4.00;99.90
35445;DHT22;21562;49.476;6.086;2022-12-18T10:10:41;-3.90;99.90
35445;DHT22;21562;49.476;6.086;2022-12-18T10:16:12;-3.50;99.90
35445;DHT22;21562;49.476;6.086;2022-12-18T10:21:35;-3.50;99.90
35445;DHT22;21562;49.476;6.086;2022-12-18T10:24:26;-3.60;99.90
35445;DHT22;21562;49.476;6.086;2022-12-18T10:26:58;-3.30;99.90
35445;DHT22;21562;49.476;6.086;2022-12-18T10:29:27;-3.00;99.90
35445;DHT22;21562;49.476;6.086;2022-12-18T10:31:52;-3.40;99.90
35445;DHT22;21562;49.476;6.086;2022-12-18T10:34:18;-3.30;99.90
35445;DHT22;21562;49.476;6.086;2022-12-18T10:36:44;-3.60;99.90
35445;DHT22;21562;49.476;6.086;2022-12-18T10:39:21;-3.40;99.90
35445;DHT22;21562;49.476;6.086;2022-12-18T10:41:47;-3.80;99.90
35445;DHT22;21562;49.476;6.086;2022-12-18T10:46:45;-3.80;99.90
35445;DHT22;21562;49.476;6.086;2022-12-18T10:49:26;-3.80;99.90
35445;DHT22;21562;49.476;6.086;2022-12-18T10:54:32;-3.00;99.90
35445;DHT22;21562;49.476;6.086;2022-12-18T10:57:31;-2.90;99.90
35445;DHT22;21562;49.476;6.086;2022-12-18T10:59:59;-3.00;99.90
35445;DHT22;21562;49.476;6.086;2022-12-18T11:02:36;-3.30;99.90
35445;DHT22;21562;49.476;6.086;2022-12-18T11:05:22;-3.90;99.90
35445;DHT22;21562;49.476;6.086;2022-12-18T11:07:50;-3.80;99.90
35445;DHT22;21562;49.476;6.086;2022-12-18T11:10:25;-3.30;99.90
35445;DHT22;21562;49.476;6.086;2022-12-18T11:12:52;-3.30;99.90
35445;DHT22;21562;49.476;6.086;2022-12-18T11:15:21;-3.80;99.90
35445;DHT22;21562;49.476;6.086;2022-12-18T11:17:50;-3.80;99.90
35445;DHT22;21562;49.476;6.086;2022-12-18T11:20:32;-3.80;99.90
35445;DHT22;21562;49.476;6.086;2022-12-18T11:23:12;-3.30;99.90
35445;DHT22;21562;49.476;6.086;2022-12-18T11:25:38;-2.70;99.90
35445;DHT22;21562;49.476;6.086;2022-12-18T11:28:53;-2.70;99.90
35445;DHT22;21562;49.476;6.086;2022-12-18T11:31:10;-2.80;99.90
35445;DHT22;21562;49.476;6.086;2022-12-18T11:33:40;-2.50;99.90
35445;DHT22;21562;49.476;6.086;2022-12-18T11:36:09;-2.30;99.90
35445;DHT22;21562;49.476;6.086;2022-12-18T11:38:37;-2.30;99.90
35445;DHT22;21562;49.476;6.086;2022-12-18T11:43:56;-2.20;99.90
35445;DHT22;21562;49.476;6.086;2022-12-18T11:46:30;-2.30;99.90
35445;DHT22;21562;49.476;6.086;2022-12-18T11:48:58;-2.10;99.90
35445;DHT22;21562;49.476;6.086;2022-12-18T11:51:42;-2.30;99.90
35445;DHT22;21562;49.476;6.086;2022-12-18T11:54:13;-2.40;99.90
35445;DHT22;21562;49.476;6.086;2022-12-18T12:04:53;-2.20;99.90
35445;DHT22;21562;49.476;6.086;2022-12-18T12:07:34;-2.10;99.90
35445;DHT22;21562;49.476;6.086;2022-12-18T12:18:17;-2.00;99.90
35445;DHT22;21562;49.476;6.086;2022-12-18T12:26:11;-1.80;99.90
35445;DHT22;21562;49.476;6.086;2022-12-18T12:34:19;-1.50;99.90
35445;DHT22;21562;49.476;6.086;2022-12-18T12:39:40;-1.20;99.90
35445;DHT22;21562;49.476;6.086;2022-12-18T12:42:26;-1.30;99.90
35445;DHT22;21562;49.476;6.086;2022-12-18T12:45:21;-1.60;99.90
35445;DHT22;21562;49.476;6.086;2022-12-18T12:47:48;-1.70;99.90
35445;DHT22;21562;49.476;6.086;2022-12-18T12:50:18;-1.60;99.90
35445;DHT22;21562;49.476;6.086;2022-12-18T12:52:55;-1.50;99.90
35445;DHT22;21562;49.476;6.086;2022-12-18T12:55:25;-1.80;99.90
35445;DHT22;21562;49.476;6.086;2022-12-18T13:00:44;-1.40;99.90
35445;DHT22;21562;49.476;6.086;2022-12-18T13:05:56;-1.30;99.90
35445;DHT22;21562;49.476;6.086;2022-12-18T13:08:30;-1.50;99.90
35445;DHT22;21562;49.476;6.086;2022-12-18T13:10:57;-1.80;99.90
35445;DHT22;21562;49.476;6.086;2022-12-18T13:13:52;-1.80;99.90
35445;DHT22;21562;49.476;6.086;2022-12-18T13:16:25;-1.40;99.90
35445;DHT22;21562;49.476;6.086;2022-12-18T13:18:56;-1.20;99.90
35445;DHT22;21562;49.476;6.086;2022-12-18T13:21:32;-1.30;99.90
35445;DHT22;21562;49.476;6.086;2022-12-18T13:24:36;-1.70;99.90
35445;DHT22;21562;49.476;6.086;2022-12-18T13:40:58;-2.50;99.90
35445;DHT22;21562;49.476;6.086;2022-12-18T13:43:33;-2.30;99.90
35445;DHT22;21562;49.476;6.086;2022-12-18T13:46:01;-2.00;99.90
35445;DHT22;21562;49.476;6.086;2022-12-18T13:48:30;-1.60;99.90
35445;DHT22;21562;49.476;6.086;2022-12-18T13:51:09;-1.40;99.90
35445;DHT22;21562;49.476;6.086;2022-12-18T13:53:44;-1.00;99.90
35445;DHT22;21562;49.476;6.086;2022-12-18T13:56:22;-0.90;99.90
35445;DHT22;21562;49.476;6.086;2022-12-18T13:59:10;-0.70;99.90
35445;DHT22;21562;49.476;6.086;2022-12-18T14:01:36;-0.90;99.90
35445;DHT22;21562;49.476;6.086;2022-12-18T14:06:46;-0.90;99.90
35445;DHT22;21562;49.476;6.086;2022-12-18T14:09:23;-0.60;99.90
35445;DHT22;21562;49.476;6.086;2022-12-18T14:11:50;-0.40;99.90
35445;DHT22;21562;49.476;6.086;2022-12-18T14:14:17;-0.30;99.90
35445;DHT22;21562;49.476;6.086;2022-12-18T14:16:43;-0.30;99.90
35445;DHT22;21562;49.476;6.086;2022-12-18T14:19:16;-0.40;99.90
35445;DHT22;21562;49.476;6.086;2022-12-18T14:21:49;-0.60;99.90
35445;DHT22;21562;49.476;6.086;2022-12-18T14:24:18;-0.60;99.90
35445;DHT22;21562;49.476;6.086;2022-12-18T14:26:44;-0.50;99.90
35445;DHT22;21562;49.476;6.086;2022-12-18T14:29:30;-0.70;99.90
35445;DHT22;21562;49.476;6.086;2022-12-18T14:32:06;-0.60;99.90
35445;DHT22;21562;49.476;6.086;2022-12-18T14:34:32;-0.70;99.90
35445;DHT22;21562;49.476;6.086;2022-12-18T14:36:57;-0.60;99.90
35445;DHT22;21562;49.476;6.086;2022-12-18T14:39:23;-1.30;99.90
35445;DHT22;21562;49.476;6.086;2022-12-18T14:41:51;-1.10;99.90
35445;DHT22;21562;49.476;6.086;2022-12-18T14:44:17;-1.00;99.90
35445;DHT22;21562;49.476;6.086;2022-12-18T14:46:47;-0.70;99.90
35445;DHT22;21562;49.476;6.086;2022-12-18T14:49:32;-0.50;99.90
35445;DHT22;21562;49.476;6.086;2022-12-18T14:52:13;-0.70;99.90
35445;DHT22;21562;49.476;6.086;2022-12-18T14:54:46;-0.90;99.90
35445;DHT22;21562;49.476;6.086;2022-12-18T14:59:47;-0.60;99.90
35445;DHT22;21562;49.476;6.086;2022-12-18T15:02:22;-0.80;99.90
35445;DHT22;21562;49.476;6.086;2022-12-18T15:05:00;-0.60;99.90
35445;DHT22;21562;49.476;6.086;2022-12-18T15:07:26;-0.50;99.90
35445;DHT22;21562;49.476;6.086;2022-12-18T15:14:58;-0.20;99.90
35445;DHT22;21562;49.476;6.086;2022-12-18T15:17:24;0.10;99.90
35445;DHT22;21562;49.476;6.086;2022-12-18T15:19:53;0.20;99.90
35445;DHT22;21562;49.476;6.086;2022-12-18T15:22:34;0.10;99.90
35445;DHT22;21562;49.476;6.086;2022-12-18T15:25:02;-0.40;99.90
35445;DHT22;21562;49.476;6.086;2022-12-18T15:27:33;-0.30;99.90
35445;DHT22;21562;49.476;6.086;2022-12-18T15:32:33;-0.10;99.90
35445;DHT22;21562;49.476;6.086;2022-12-18T15:37:35;0.00;99.90
35445;DHT22;21562;49.476;6.086;2022-12-18T15:40:00;0.30;99.90
35445;DHT22;21562;49.476;6.086;2022-12-18T15:42:28;0.30;99.90
35445;DHT22;21562;49.476;6.086;2022-12-18T15:45:13;-0.30;99.90
35445;DHT22;21562;49.476;6.086;2022-12-18T15:47:39;-0.30;99.90
35445;DHT22;21562;49.476;6.086;2022-12-18T15:50:05;-0.10;99.90
35445;DHT22;21562;49.476;6.086;2022-12-18T15:52:52;-0.10;99.90
35445;DHT22;21562;49.476;6.086;2022-12-18T15:55:23;0.20;99.90
35445;DHT22;21562;49.476;6.086;2022-12-18T15:58:09;0.20;99.90
35445;DHT22;21562;49.476;6.086;2022-12-18T16:00:37;0.30;99.90
35445;DHT22;21562;49.476;6.086;2022-12-18T16:03:04;-0.10;99.90
35445;DHT22;21562;49.476;6.086;2022-12-18T16:05:30;-0.20;99.90
35445;DHT22;21562;49.476;6.086;2022-12-18T16:07:56;-0.20;99.90
35445;DHT22;21562;49.476;6.086;2022-12-18T16:10:22;-0.10;99.90
35445;DHT22;21562;49.476;6.086;2022-12-18T16:12:48;-0.20;99.90
35445;DHT22;21562;49.476;6.086;2022-12-18T16:15:14;-0.30;99.90
35445;DHT22;21562;49.476;6.086;2022-12-18T16:17:42;-0.20;99.90
35445;DHT22;21562;49.476;6.086;2022-12-18T16:20:13;-0.30;99.90
35445;DHT22;21562;49.476;6.086;2022-12-18T16:22:41;-0.10;99.90
35445;DHT22;21562;49.476;6.086;2022-12-18T16:27:42;0.30;99.90
35445;DHT22;21562;49.476;6.086;2022-12-18T16:30:13;-0.10;99.90
35445;DHT22;21562;49.476;6.086;2022-12-18T16:32:38;0.10;99.90
35445;DHT22;21562;49.476;6.086;2022-12-18T16:35:04;0.10;99.90
35445;DHT22;21562;49.476;6.086;2022-12-18T16:37:30;0.30;99.90
35445;DHT22;21562;49.476;6.086;2022-12-18T16:39:56;0.30;99.90
35445;DHT22;21562;49.476;6.086;2022-12-18T16:42:21;0.20;99.90
35445;DHT22;21562;49.476;6.086;2022-12-18T16:44:48;-0.10;99.90
35445;DHT22;21562;49.476;6.086;2022-12-18T16:47:16;-0.40;99.90
35445;DHT22;21562;49.476;6.086;2022-12-18T16:49:42;-0.50;99.90
35445;DHT22;21562;49.476;6.086;2022-12-18T16:52:10;-0.80;99.90
35445;DHT22;21562;49.476;6.086;2022-12-18T16:54:35;-0.70;99.90
35445;DHT22;21562;49.476;6.086;2022-12-18T16:57:02;-0.50;99.90
35445;DHT22;21562;49.476;6.086;2022-12-18T16:59:29;-0.20;99.90
35445;DHT22;21562;49.476;6.086;2022-12-18T17:01:55;0.00;99.90
35445;DHT22;21562;49.476;6.086;2022-12-18T17:04:21;-0.20;99.90
35445;DHT22;21562;49.476;6.086;2022-12-18T17:06:47;0.00;99.90
35445;DHT22;21562;49.476;6.086;2022-12-18T17:09:17;0.20;99.90
35445;DHT22;21562;49.476;6.086;2022-12-18T17:11:53;0.40;99.90
35445;DHT22;21562;49.476;6.086;2022-12-18T17:14:21;0.30;99.90
35445;DHT22;21562;49.476;6.086;2022-12-18T17:16:47;0.20;99.90
35445;DHT22;21562;49.476;6.086;2022-12-18T17:19:13;-0.40;99.90
35445;DHT22;21562;49.476;6.086;2022-12-18T17:21:40;-0.10;99.90
35445;DHT22;21562;49.476;6.086;2022-12-18T17:24:05;-0.10;99.90
35445;DHT22;21562;49.476;6.086;2022-12-18T17:26:31;0.00;99.90
35445;DHT22;21562;49.476;6.086;2022-12-18T17:28:58;0.00;99.90
35445;DHT22;21562;49.476;6.086;2022-12-18T17:31:26;0.20;99.90
35445;DHT22;21562;49.476;6.086;2022-12-18T17:33:52;0.10;99.90
35445;DHT22;21562;49.476;6.086;2022-12-18T17:36:18;0.30;99.90
35445;DHT22;21562;49.476;6.086;2022-12-18T17:38:50;0.50;99.90
35445;DHT22;21562;49.476;6.086;2022-12-18T17:41:16;0.70;99.90
35445;DHT22;21562;49.476;6.086;2022-12-18T17:43:42;0.50;99.90